createdAt,value
2023-04-05T00:01:54.407Z,100.00
2023-04-05T00:04:21.387Z,100.00
2023-04-05T00:06:52.855Z,100.00
2023-04-05T00:09:20.774Z,100.00
2023-04-05T00:11:47.969Z,100.00
2023-04-05T00:14:15.334Z,100.00
2023-04-05T00:16:42.287Z,100.00
2023-04-05T00:19:11.032Z,100.00
2023-04-05T00:21:39.312Z,100.00
2023-04-05T00:24:06.370Z,100.00
2023-04-05T00:26:32.984Z,100.00
2023-04-05T00:28:59.619Z,100.00
2023-04-05T00:31:26.317Z,100.00
2023-04-05T00:33:53.289Z,100.00
2023-04-05T00:36:21.027Z,100.00
2023-04-05T00:38:49.790Z,100.00
2023-04-05T00:41:16.795Z,100.00
2023-04-05T00:43:43.834Z,100.00
2023-04-05T00:46:10.812Z,100.00
2023-04-05T00:48:38.375Z,100.00
2023-04-05T00:51:09.122Z,100.00
2023-04-05T00:53:36.193Z,100.00
2023-04-05T00:56:03.036Z,100.00
2023-04-05T00:58:30.647Z,100.00
2023-04-05T01:01:19.627Z,100.00
2023-04-05T01:03:53.745Z,100.00
2023-04-05T01:06:34.420Z,100.00
2023-04-05T01:09:23.290Z,100.00
2023-04-05T01:11:55.716Z,100.00
2023-04-05T01:14:22.455Z,100.00
2023-04-05T01:16:58.025Z,100.00
2023-04-05T01:19:30.126Z,100.00
2023-04-05T01:22:20.248Z,100.00
2023-04-05T01:25:10.998Z,100.00
2023-04-05T01:28:10.378Z,100.00
2023-04-05T01:30:39.985Z,100.00
2023-04-05T01:33:17.074Z,100.00
2023-04-05T01:36:14.297Z,100.00
2023-04-05T01:38:44.085Z,100.00
2023-04-05T01:41:12.195Z,100.00
2023-04-05T01:43:38.819Z,100.00
2023-04-05T01:46:05.572Z,100.00
2023-04-05T01:48:32.403Z,100.00
2023-04-05T01:51:00.762Z,100.00
2023-04-05T01:53:27.285Z,100.00
2023-04-05T01:55:54.186Z,100.00
2023-04-05T01:58:20.831Z,100.00
2023-04-05T02:00:47.576Z,100.00
2023-04-05T02:03:14.316Z,100.00
2023-04-05T02:05:42.269Z,100.00
2023-04-05T02:08:10.023Z,100.00
2023-04-05T02:10:36.617Z,100.00
2023-04-05T02:13:03.332Z,100.00
2023-04-05T02:15:30.304Z,100.00
2023-04-05T02:17:57.808Z,100.00
2023-04-05T02:20:26.024Z,100.00
2023-04-05T02:22:53.682Z,100.00
2023-04-05T02:25:21.997Z,100.00
2023-04-05T02:27:48.685Z,100.00
2023-04-05T02:30:15.576Z,100.00
2023-04-05T02:32:42.676Z,100.00
2023-04-05T02:35:09.710Z,100.00
2023-04-05T02:37:36.641Z,100.00
2023-04-05T02:40:07.896Z,100.00
2023-04-05T02:42:34.443Z,100.00
2023-04-05T02:45:01.162Z,100.00
2023-04-05T02:47:28.032Z,100.00
2023-04-05T02:49:58.034Z,100.00
2023-04-05T02:52:27.411Z,100.00
2023-04-05T02:54:54.121Z,100.00
2023-04-05T02:57:25.839Z,100.00
2023-04-05T03:00:00.712Z,100.00
2023-04-05T03:02:29.817Z,100.00
2023-04-05T03:04:56.461Z,100.00
2023-04-05T03:07:25.771Z,100.00
2023-04-05T03:09:53.964Z,100.00
2023-04-05T03:12:21.632Z,100.00
2023-04-05T03:14:49.301Z,100.00
2023-04-05T03:17:20.454Z,100.00
2023-04-05T03:19:56.604Z,100.00
2023-04-05T03:22:25.426Z,100.00
2023-04-05T03:24:52.797Z,100.00
2023-04-05T03:27:21.860Z,100.00
2023-04-05T03:30:05.975Z,100.00
2023-04-05T03:32:37.086Z,100.00
2023-04-05T03:35:16.847Z,100.00
2023-04-05T03:37:46.344Z,100.00
2023-04-05T03:40:13.529Z,100.00
2023-04-05T03:42:40.596Z,100.00
2023-04-05T03:45:07.667Z,100.00
2023-04-05T03:47:34.928Z,100.00
2023-04-05T03:50:05.863Z,100.00
2023-04-05T03:52:32.486Z,100.00
2023-04-05T03:55:00.105Z,100.00
2023-04-05T03:57:30.272Z,100.00
2023-04-05T04:00:00.250Z,100.00
2023-04-05T04:02:30.156Z,100.00
2023-04-05T04:04:57.795Z,100.00
2023-04-05T04:07:26.717Z,100.00
2023-04-05T04:09:55.370Z,100.00
2023-04-05T04:12:22.570Z,100.00
2023-04-05T04:14:55.889Z,100.00
2023-04-05T04:17:41.702Z,100.00
2023-04-05T04:20:29.545Z,100.00
2023-04-05T04:23:19.419Z,100.00
2023-04-05T04:26:09.617Z,100.00
2023-04-05T04:28:38.689Z,100.00
2023-04-05T04:31:23.855Z,100.00
2023-04-05T04:34:02.323Z,100.00
2023-04-05T04:37:00.763Z,100.00
2023-04-05T04:39:48.722Z,100.00
2023-04-05T04:42:38.817Z,100.00
2023-04-05T04:45:24.323Z,100.00
2023-04-05T04:48:01.257Z,100.00
2023-04-05T04:50:50.085Z,100.00
2023-04-05T04:53:20.958Z,100.00
2023-04-05T04:55:49.980Z,100.00
2023-04-05T04:58:17.352Z,100.00
2023-04-05T05:00:52.869Z,100.00
2023-04-05T05:03:19.511Z,100.00
2023-04-05T05:05:48.628Z,100.00
2023-04-05T05:08:21.320Z,100.00
2023-04-05T05:10:52.496Z,100.00
2023-04-05T05:13:19.176Z,100.00
2023-04-05T05:15:46.684Z,100.00
2023-04-05T05:18:13.493Z,100.00
2023-04-05T05:20:41.526Z,100.00
2023-04-05T05:23:08.436Z,100.00
2023-04-05T05:25:35.206Z,100.00
2023-04-05T05:28:01.802Z,100.00
2023-04-05T05:30:29.586Z,100.00
2023-04-05T05:32:57.831Z,100.00
2023-04-05T05:35:24.507Z,100.00
2023-04-05T05:37:52.528Z,100.00
2023-04-05T05:40:19.242Z,100.00
2023-04-05T05:42:45.902Z,100.00
2023-04-05T05:45:12.548Z,100.00
2023-04-05T05:47:39.299Z,100.00
2023-04-05T05:50:07.279Z,100.00
2023-04-05T05:52:35.872Z,100.00
2023-04-05T05:55:02.526Z,100.00
2023-04-05T05:57:29.201Z,100.00
2023-04-05T05:59:55.705Z,100.00
2023-04-05T06:02:22.387Z,100.00
2023-04-05T06:04:49.711Z,100.00
2023-04-05T06:07:16.389Z,100.00
2023-04-05T06:09:45.208Z,100.00
2023-04-05T06:12:11.921Z,100.00
2023-04-05T06:14:38.569Z,100.00
2023-04-05T06:17:05.261Z,100.00
2023-04-05T06:19:31.922Z,100.00
2023-04-05T06:22:00.747Z,100.00
2023-04-05T06:24:31.673Z,100.00
2023-04-05T06:26:58.934Z,100.00
2023-04-05T06:29:25.961Z,100.00
2023-04-05T06:31:53.237Z,100.00
2023-04-05T06:34:19.921Z,100.00
2023-04-05T06:36:46.686Z,100.00
2023-04-05T06:39:14.386Z,100.00
2023-04-05T06:41:41.066Z,100.00
2023-04-05T06:44:07.786Z,100.00
2023-04-05T06:46:36.728Z,100.00
2023-04-05T06:49:04.123Z,100.00
2023-04-05T06:51:31.362Z,100.00
2023-04-05T06:53:58.103Z,100.00
2023-04-05T06:56:24.938Z,86.58
2023-04-05T06:58:51.661Z,81.38
2023-04-05T07:01:18.605Z,72.66
2023-04-05T07:03:45.492Z,72.32
2023-04-05T07:06:12.817Z,64.23
2023-04-05T07:08:39.488Z,59.63
2023-04-05T07:11:06.090Z,58.91
2023-04-05T07:13:32.708Z,59.83
2023-04-05T07:16:01.191Z,59.19
2023-04-05T07:18:28.301Z,60.14
2023-04-05T07:20:59.995Z,56.06
2023-04-05T07:23:27.976Z,54.11
2023-04-05T07:25:55.008Z,53.50
2023-04-05T07:28:21.637Z,54.77
2023-04-05T07:30:48.551Z,52.89
2023-04-05T07:33:15.960Z,52.84
2023-04-05T07:35:43.022Z,49.80
2023-04-05T07:38:11.265Z,50.05
2023-04-05T07:40:37.934Z,49.95
2023-04-05T07:43:04.731Z,48.08
2023-04-05T07:45:31.397Z,50.08
2023-04-05T07:47:58.126Z,48.87
2023-04-05T07:50:24.765Z,47.65
2023-04-05T07:52:51.364Z,48.80
2023-04-05T07:55:18.077Z,46.44
2023-04-05T07:57:44.632Z,45.32
2023-04-05T08:00:13.230Z,46.21
2023-04-05T08:02:40.241Z,44.93
2023-04-05T08:05:07.214Z,42.87
2023-04-05T08:07:33.857Z,41.08
2023-04-05T08:10:00.713Z,42.60
2023-04-05T08:12:27.355Z,41.87
2023-04-05T08:14:54.152Z,41.82
2023-04-05T08:17:20.818Z,41.25
2023-04-05T08:19:49.948Z,40.55
2023-04-05T08:22:17.786Z,39.87
2023-04-05T08:24:45.021Z,40.77
2023-04-05T08:27:12.286Z,39.83
2023-04-05T08:29:39.012Z,39.03
2023-04-05T08:32:06.114Z,38.37
2023-04-05T08:34:32.812Z,37.75
2023-04-05T08:37:00.048Z,38.22
2023-04-05T08:39:26.919Z,37.92
2023-04-05T08:42:16.852Z,38.23
2023-04-05T08:44:45.061Z,36.72
2023-04-05T08:47:15.246Z,37.18
2023-04-05T08:49:45.789Z,36.08
2023-04-05T08:52:12.784Z,36.33
2023-04-05T08:54:39.503Z,37.59
2023-04-05T08:57:07.538Z,36.75
2023-04-05T08:59:39.069Z,35.06
2023-04-05T09:02:12.236Z,35.33
2023-04-05T09:04:44.757Z,34.62
2023-04-05T09:07:14.232Z,34.19
2023-04-05T09:09:46.169Z,35.39
2023-04-05T09:12:14.068Z,34.22
2023-04-05T09:14:41.620Z,34.08
2023-04-05T09:17:08.387Z,34.35
2023-04-05T09:19:35.123Z,33.38
2023-04-05T09:22:08.842Z,31.63
2023-04-05T09:24:43.958Z,31.92
2023-04-05T09:27:12.731Z,33.74
2023-04-05T09:29:51.051Z,30.78
2023-04-05T09:32:19.332Z,31.53
2023-04-05T09:34:46.297Z,32.31
2023-04-05T09:37:24.332Z,32.87
2023-04-05T09:40:01.660Z,33.22
2023-04-05T09:42:32.127Z,32.85
2023-04-05T09:45:05.037Z,32.59
2023-04-05T09:47:42.199Z,32.41
2023-04-05T09:50:14.894Z,31.06
2023-04-05T09:52:42.415Z,30.11
2023-04-05T09:55:09.719Z,30.78
2023-04-05T09:57:38.674Z,29.47
2023-04-05T10:00:06.821Z,30.42
2023-04-05T10:02:41.422Z,30.86
2023-04-05T10:05:13.732Z,31.22
2023-04-05T10:07:41.441Z,29.59
2023-04-05T10:10:12.795Z,29.61
2023-04-05T10:12:41.490Z,27.96
2023-04-05T10:15:09.370Z,27.70
2023-04-05T10:17:53.374Z,29.80
2023-04-05T10:20:25.333Z,29.08
2023-04-05T10:22:51.971Z,29.53
2023-04-05T10:25:24.153Z,29.11
2023-04-05T10:27:57.662Z,28.69
2023-04-05T10:30:28.046Z,28.25
2023-04-05T10:33:12.877Z,27.93
2023-04-05T10:35:54.494Z,26.73
2023-04-05T10:38:29.055Z,27.88
2023-04-05T10:41:06.861Z,27.81
2023-04-05T10:43:35.376Z,26.36
2023-04-05T10:46:04.165Z,26.71
2023-04-05T10:49:12.141Z,25.96
2023-04-05T10:51:39.406Z,27.44
2023-04-05T10:54:09.932Z,28.16
2023-04-05T10:56:37.571Z,27.11
2023-04-05T10:59:05.263Z,25.88
2023-04-05T11:01:33.213Z,26.63
2023-04-05T11:04:14.997Z,25.80
2023-04-05T11:06:42.976Z,26.00
2023-04-05T11:09:16.377Z,24.05
2023-04-05T11:11:51.773Z,25.39
2023-04-05T11:14:40.942Z,25.76
2023-04-05T11:17:25.415Z,24.94
2023-04-05T11:19:52.519Z,24.58
2023-04-05T11:22:29.066Z,23.90
2023-04-05T11:25:01.819Z,25.48
2023-04-05T11:27:30.568Z,24.33
2023-04-05T11:29:59.194Z,23.33
2023-04-05T11:33:00.536Z,23.57
2023-04-05T11:35:27.973Z,23.24
2023-04-05T11:38:01.058Z,23.77
2023-04-05T11:40:36.187Z,23.46
2023-04-05T11:43:09.534Z,22.94
2023-04-05T11:45:44.962Z,22.61
2023-04-05T11:48:14.686Z,22.99
2023-04-05T11:50:42.406Z,22.74
2023-04-05T11:53:12.795Z,22.74
2023-04-05T11:55:47.272Z,22.76
2023-04-05T11:58:23.795Z,22.60
2023-04-05T12:01:07.117Z,22.96
2023-04-05T12:03:36.835Z,23.37
2023-04-05T12:06:05.606Z,22.82
2023-04-05T12:08:52.993Z,22.81
2023-04-05T12:11:31.128Z,22.79
2023-04-05T12:13:59.879Z,23.50
2023-04-05T12:16:27.153Z,22.96
2023-04-05T12:19:02.775Z,22.85
2023-04-05T12:21:29.508Z,22.80
2023-04-05T12:23:56.732Z,22.46
2023-04-05T12:26:23.998Z,23.37
2023-04-05T12:28:56.215Z,22.15
2023-04-05T12:31:57.450Z,22.26
2023-04-05T12:34:27.869Z,21.49
2023-04-05T12:36:54.618Z,22.02
2023-04-05T12:39:21.365Z,21.63
2023-04-05T12:41:59.415Z,21.63
2023-04-05T12:44:30.381Z,21.86
2023-04-05T12:47:07.485Z,22.73
2023-04-05T12:49:38.290Z,21.84
2023-04-05T12:52:04.932Z,21.57
2023-04-05T12:54:32.340Z,21.69
2023-04-05T12:57:01.582Z,21.31
2023-04-05T12:59:28.120Z,21.63
2023-04-05T13:01:54.832Z,20.72
2023-04-05T13:04:23.130Z,20.07
2023-04-05T13:06:50.134Z,20.71
2023-04-05T13:09:17.180Z,20.23
2023-04-05T13:11:43.928Z,20.20
2023-04-05T13:14:10.634Z,20.56
2023-04-05T13:16:37.301Z,21.01
2023-04-05T13:19:04.023Z,20.74
2023-04-05T13:21:30.974Z,21.11
2023-04-05T13:23:57.593Z,20.27
2023-04-05T13:26:24.291Z,21.42
2023-04-05T13:28:50.926Z,20.48
2023-04-05T13:31:17.596Z,20.95
2023-04-05T13:33:44.355Z,20.26
2023-04-05T13:36:12.533Z,20.87
2023-04-05T13:38:39.743Z,20.76
2023-04-05T13:41:06.595Z,20.71
2023-04-05T13:43:33.197Z,20.58
2023-04-05T13:45:59.895Z,21.32
2023-04-05T13:48:26.605Z,20.46
2023-04-05T13:50:53.236Z,21.89
2023-04-05T13:53:19.860Z,21.61
2023-04-05T13:55:46.491Z,21.12
2023-04-05T13:58:14.370Z,20.80
2023-04-05T14:00:41.518Z,21.43
2023-04-05T14:03:08.626Z,21.56
2023-04-05T14:05:35.436Z,21.28
2023-04-05T14:08:02.053Z,20.92
2023-04-05T14:10:28.663Z,20.82
2023-04-05T14:12:55.202Z,21.21
2023-04-05T14:15:21.879Z,20.92
2023-04-05T14:17:48.670Z,21.23
2023-04-05T14:20:15.612Z,21.13
2023-04-05T14:22:42.274Z,21.19
2023-04-05T14:25:09.293Z,20.91
2023-04-05T14:27:41.159Z,21.11
2023-04-05T14:30:09.103Z,21.99
2023-04-05T14:32:35.740Z,21.29
2023-04-05T14:35:02.368Z,21.60
2023-04-05T14:37:29.011Z,21.81
2023-04-05T14:39:55.663Z,21.70
2023-04-05T14:42:22.787Z,22.14
2023-04-05T14:44:49.436Z,22.47
2023-04-05T14:47:16.360Z,22.81
2023-04-05T14:49:42.988Z,22.28
2023-04-05T14:52:09.844Z,22.16
2023-04-05T14:54:36.558Z,22.35
2023-04-05T14:57:03.310Z,22.13
2023-04-05T14:59:30.881Z,21.73
2023-04-05T15:01:57.823Z,21.95
2023-04-05T15:04:25.348Z,21.39
2023-04-05T15:06:51.984Z,21.41
2023-04-05T15:09:18.626Z,21.93
2023-04-05T15:11:45.306Z,21.45
2023-04-05T15:14:21.064Z,20.98
2023-04-05T15:16:55.678Z,21.08
2023-04-05T15:19:22.324Z,21.22
2023-04-05T15:21:48.949Z,21.11
2023-04-05T15:24:15.733Z,21.04
2023-04-05T15:26:42.296Z,20.41
2023-04-05T15:29:08.943Z,20.30
2023-04-05T15:31:36.022Z,21.27
2023-04-05T15:34:02.892Z,20.28
2023-04-05T15:36:29.982Z,20.91
2023-04-05T15:38:58.145Z,21.43
2023-04-05T15:41:24.813Z,21.67
2023-04-05T15:43:51.466Z,21.27
2023-04-05T15:46:18.274Z,21.53
2023-04-05T15:48:45.296Z,21.87
2023-04-05T15:51:12.374Z,21.92
2023-04-05T15:53:39.013Z,21.49
2023-04-05T15:56:06.061Z,21.59
2023-04-05T15:58:32.603Z,21.77
2023-04-05T16:00:59.292Z,21.91
2023-04-05T16:03:26.134Z,22.86
2023-04-05T16:05:52.793Z,22.47
2023-04-05T16:08:19.457Z,22.66
2023-04-05T16:10:46.122Z,22.69
2023-04-05T16:13:12.825Z,23.36
2023-04-05T16:15:39.526Z,22.81
2023-04-05T16:18:06.733Z,23.70
2023-04-05T16:20:33.434Z,23.52
2023-04-05T16:23:00.400Z,23.73
2023-04-05T16:25:31.703Z,24.12
2023-04-05T16:28:00.467Z,23.96
2023-04-05T16:30:31.088Z,24.19
2023-04-05T16:32:58.322Z,24.37
2023-04-05T16:35:25.350Z,25.76
2023-04-05T16:37:52.206Z,25.73
2023-04-05T16:40:18.884Z,26.50
2023-04-05T16:42:45.863Z,27.36
2023-04-05T16:45:12.567Z,27.61
2023-04-05T16:47:39.197Z,27.56
2023-04-05T16:50:06.475Z,27.83
2023-04-05T16:52:33.122Z,27.97
2023-04-05T16:54:59.829Z,28.09
2023-04-05T16:57:26.625Z,28.93
2023-04-05T16:59:53.377Z,29.12
2023-04-05T17:02:20.221Z,30.05
2023-04-05T17:04:46.952Z,30.65
2023-04-05T17:07:13.570Z,31.20
2023-04-05T17:09:40.456Z,30.75
2023-04-05T17:12:07.269Z,31.22
2023-04-05T17:14:33.929Z,30.87
2023-04-05T17:17:00.625Z,31.47
2023-04-05T17:19:27.466Z,32.85
2023-04-05T17:21:54.122Z,32.98
2023-04-05T17:24:20.912Z,32.90
2023-04-05T17:26:47.702Z,33.34
2023-04-05T17:29:14.531Z,33.17
2023-04-05T17:31:42.169Z,33.25
2023-04-05T17:34:13.008Z,33.58
2023-04-05T17:36:40.273Z,34.28
2023-04-05T17:39:07.120Z,34.81
2023-04-05T17:41:33.893Z,36.06
2023-04-05T17:44:00.521Z,36.65
2023-04-05T17:46:39.749Z,37.37
2023-04-05T17:49:08.208Z,38.11
2023-04-05T17:51:34.914Z,38.67
2023-04-05T17:54:01.626Z,39.77
2023-04-05T17:56:28.261Z,40.53
2023-04-05T17:58:54.940Z,41.45
2023-04-05T18:01:21.621Z,42.14
2023-04-05T18:03:48.308Z,42.96
2023-04-05T18:06:17.171Z,43.92
2023-04-05T18:08:43.794Z,44.99
2023-04-05T18:11:10.522Z,46.28
2023-04-05T18:13:37.180Z,47.66
2023-04-05T18:16:03.971Z,48.12
2023-04-05T18:18:31.483Z,48.61
2023-04-05T18:21:01.743Z,49.93
2023-04-05T18:23:28.577Z,50.99
2023-04-05T18:25:55.496Z,51.91
2023-04-05T18:28:23.637Z,52.83
2023-04-05T18:30:51.649Z,54.76
2023-04-05T18:33:18.760Z,56.39
2023-04-05T18:35:50.421Z,59.11
2023-04-05T18:38:17.228Z,62.51
2023-04-05T18:40:43.902Z,65.48
2023-04-05T18:43:10.671Z,71.35
2023-04-05T18:45:38.751Z,73.32
2023-04-05T18:48:05.819Z,76.70
2023-04-05T18:50:32.608Z,78.92
2023-04-05T18:52:59.243Z,81.25
2023-04-05T18:55:25.900Z,85.11
2023-04-05T18:57:52.501Z,87.25
2023-04-05T19:00:19.450Z,89.90
2023-04-05T19:02:46.149Z,91.22
2023-04-05T19:05:13.023Z,91.14
2023-04-05T19:07:39.705Z,92.21
2023-04-05T19:10:07.122Z,92.88
2023-04-05T19:12:33.739Z,96.90
2023-04-05T19:15:00.496Z,99.77
2023-04-05T19:17:27.481Z,100.00
2023-04-05T19:19:54.117Z,100.00
2023-04-05T19:22:20.845Z,100.00
2023-04-05T19:24:47.426Z,100.00
2023-04-05T19:27:14.099Z,100.00
2023-04-05T19:29:40.746Z,100.00
2023-04-05T19:32:08.920Z,100.00
2023-04-05T19:34:37.785Z,100.00
2023-04-05T19:37:04.627Z,100.00
2023-04-05T19:39:33.564Z,100.00
2023-04-05T19:42:00.243Z,100.00
2023-04-05T19:44:48.036Z,100.00
2023-04-05T19:47:14.723Z,100.00
2023-04-05T19:49:42.406Z,100.00
2023-04-05T19:52:12.821Z,100.00
2023-04-05T19:54:42.457Z,100.00
2023-04-05T19:57:09.875Z,100.00
2023-04-05T19:59:36.499Z,100.00
2023-04-05T20:02:19.335Z,100.00
2023-04-05T20:04:45.953Z,100.00
2023-04-05T20:07:13.089Z,100.00
2023-04-05T20:09:40.145Z,100.00
2023-04-05T20:12:07.169Z,100.00
2023-04-05T20:14:48.751Z,100.00
2023-04-05T20:17:18.670Z,100.00
2023-04-05T20:20:00.632Z,100.00
2023-04-05T20:22:28.976Z,100.00
2023-04-05T20:24:55.653Z,100.00
2023-04-05T20:27:22.372Z,100.00
2023-04-05T20:29:49.087Z,100.00
2023-04-05T20:32:17.039Z,100.00
2023-04-05T20:34:45.979Z,100.00
2023-04-05T20:37:13.405Z,100.00
2023-04-05T20:39:40.203Z,100.00
2023-04-05T20:42:08.359Z,100.00
2023-04-05T20:44:35.026Z,100.00
2023-04-05T20:47:01.735Z,100.00
2023-04-05T20:49:28.965Z,100.00
2023-04-05T20:51:57.160Z,100.00
2023-04-05T20:54:24.292Z,100.00
2023-04-05T20:56:50.997Z,100.00
2023-04-05T20:59:17.599Z,100.00
2023-04-05T21:01:47.147Z,100.00
2023-04-05T21:04:14.471Z,100.00
2023-04-05T21:06:41.644Z,100.00
2023-04-05T21:09:08.645Z,100.00
2023-04-05T21:11:35.742Z,100.00
2023-04-05T21:14:02.413Z,100.00
2023-04-05T21:16:29.131Z,100.00
2023-04-05T21:18:55.903Z,100.00
2023-04-05T21:21:22.564Z,100.00
2023-04-05T21:23:50.028Z,100.00
2023-04-05T21:26:16.574Z,100.00
2023-04-05T21:28:43.251Z,100.00
2023-04-05T21:31:09.995Z,100.00
2023-04-05T21:33:36.699Z,100.00
2023-04-05T21:36:03.474Z,100.00
2023-04-05T21:38:30.148Z,100.00
2023-04-05T21:40:56.801Z,100.00
2023-04-05T21:43:23.464Z,100.00
2023-04-05T21:45:51.046Z,100.00
2023-04-05T21:48:17.663Z,100.00
2023-04-05T21:50:44.453Z,100.00
2023-04-05T21:53:11.201Z,100.00
2023-04-05T21:55:37.845Z,100.00
2023-04-05T21:58:04.458Z,100.00
2023-04-05T22:00:31.336Z,100.00
2023-04-05T22:02:58.070Z,100.00
2023-04-05T22:05:36.154Z,100.00
2023-04-05T22:08:05.663Z,100.00
2023-04-05T22:10:32.767Z,100.00
2023-04-05T22:12:59.479Z,100.00
2023-04-05T22:15:26.256Z,100.00
2023-04-05T22:17:53.223Z,100.00
2023-04-05T22:20:19.855Z,100.00
2023-04-05T22:22:46.734Z,100.00
2023-04-05T22:25:13.447Z,100.00
2023-04-05T22:27:40.397Z,100.00
2023-04-05T22:30:08.462Z,100.00
2023-04-05T22:32:35.707Z,100.00
2023-04-05T22:35:04.327Z,100.00
2023-04-05T22:37:35.586Z,100.00
2023-04-05T22:40:04.323Z,100.00
2023-04-05T22:42:31.165Z,100.00
2023-04-05T22:44:57.790Z,100.00
2023-04-05T22:47:24.579Z,100.00
2023-04-05T22:49:51.886Z,100.00
2023-04-05T22:52:18.572Z,100.00
2023-04-05T22:54:45.324Z,100.00
2023-04-05T22:57:12.848Z,100.00
2023-04-05T22:59:39.495Z,100.00
2023-04-05T23:02:06.324Z,100.00
2023-04-05T23:04:32.940Z,100.00
2023-04-05T23:06:59.589Z,100.00
2023-04-05T23:09:27.203Z,100.00
2023-04-05T23:11:53.752Z,100.00
2023-04-05T23:14:20.457Z,100.00
2023-04-05T23:16:47.072Z,100.00
2023-04-05T23:19:13.702Z,100.00
2023-04-05T23:21:40.319Z,100.00
2023-04-05T23:24:07.355Z,100.00
2023-04-05T23:26:34.328Z,100.00
2023-04-05T23:29:01.010Z,100.00
2023-04-05T23:31:27.774Z,100.00
2023-04-05T23:33:54.785Z,100.00
2023-04-05T23:36:22.079Z,100.00
2023-04-05T23:38:48.984Z,100.00
2023-04-05T23:41:15.699Z,100.00
2023-04-05T23:43:42.313Z,100.00
2023-04-05T23:46:09.030Z,100.00
2023-04-05T23:48:35.795Z,100.00
2023-04-05T23:51:02.373Z,100.00
2023-04-05T23:53:29.009Z,100.00
2023-04-05T23:55:56.884Z,100.00
2023-04-05T23:58:23.847Z,100.00
